sensor_id;sensor_type;location;lat;lon;timestamp;P1;durP1;ratioP1;P2;durP2;ratioP2
5774;SDS011;2913;51.120;6.772;2024-03-29T00:01:34;4.13;;;0.80;;
5774;SDS011;2913;51.120;6.772;2024-03-29T00:04:00;3.88;;;0.77;;
5774;SDS011;2913;51.120;6.772;2024-03-29T00:06:25;2.10;;;0.80;;
5774;SDS011;2913;51.120;6.772;2024-03-29T00:08:53;3.03;;;0.82;;
5774;SDS011;2913;51.120;6.772;2024-03-29T00:11:19;2.22;;;0.47;;
5774;SDS011;2913;51.120;6.772;2024-03-29T00:13:47;4.65;;;0.50;;
5774;SDS011;2913;51.120;6.772;2024-03-29T00:16:12;1.58;;;0.32;;
5774;SDS011;2913;51.120;6.772;2024-03-29T00:18:40;1.95;;;0.57;;
5774;SDS011;2913;51.120;6.772;2024-03-29T00:21:06;3.05;;;0.57;;
5774;SDS011;2913;51.120;6.772;2024-03-29T00:23:31;3.05;;;0.52;;
5774;SDS011;2913;51.120;6.772;2024-03-29T00:25:57;2.63;;;0.70;;
5774;SDS011;2913;51.120;6.772;2024-03-29T00:28:23;3.53;;;0.70;;
5774;SDS011;2913;51.120;6.772;2024-03-29T00:30:51;3.58;;;0.55;;
5774;SDS011;2913;51.120;6.772;2024-03-29T00:33:17;0.55;;;0.40;;
5774;SDS011;2913;51.120;6.772;2024-03-29T00:35:42;4.15;;;1.30;;
5774;SDS011;2913;51.120;6.772;2024-03-29T00:38:08;6.15;;;1.45;;
5774;SDS011;2913;51.120;6.772;2024-03-29T00:40:36;11.30;;;2.20;;
5774;SDS011;2913;51.120;6.772;2024-03-29T00:43:02;8.95;;;3.05;;
5774;SDS011;2913;51.120;6.772;2024-03-29T00:45:28;9.77;;;3.33;;
5774;SDS011;2913;51.120;6.772;2024-03-29T00:47:54;8.93;;;3.70;;
5774;SDS011;2913;51.120;6.772;2024-03-29T00:50:24;15.55;;;4.00;;
5774;SDS011;2913;51.120;6.772;2024-03-29T00:52:50;11.40;;;3.60;;
5774;SDS011;2913;51.120;6.772;2024-03-29T00:55:18;7.60;;;3.10;;
5774;SDS011;2913;51.120;6.772;2024-03-29T00:57:43;4.85;;;2.63;;
5774;SDS011;2913;51.120;6.772;2024-03-29T01:00:09;7.85;;;2.25;;
5774;SDS011;2913;51.120;6.772;2024-03-29T01:02:35;6.50;;;1.80;;
5774;SDS011;2913;51.120;6.772;2024-03-29T01:05:01;3.67;;;1.48;;
5774;SDS011;2913;51.120;6.772;2024-03-29T01:07:28;6.78;;;1.42;;
5774;SDS011;2913;51.120;6.772;2024-03-29T01:09:53;6.80;;;1.05;;
5774;SDS011;2913;51.120;6.772;2024-03-29T01:12:21;2.53;;;0.63;;
5774;SDS011;2913;51.120;6.772;2024-03-29T01:14:47;1.58;;;0.52;;
5774;SDS011;2913;51.120;6.772;2024-03-29T01:17:12;1.40;;;0.60;;
5774;SDS011;2913;51.120;6.772;2024-03-29T01:19:40;2.72;;;0.40;;
5774;SDS011;2913;51.120;6.772;2024-03-29T01:22:08;1.17;;;0.63;;
5774;SDS011;2913;51.120;6.772;2024-03-29T01:24:37;3.47;;;0.60;;
5774;SDS011;2913;51.120;6.772;2024-03-29T01:27:05;1.00;;;0.35;;
5774;SDS011;2913;51.120;6.772;2024-03-29T01:29:33;1.65;;;0.50;;
5774;SDS011;2913;51.120;6.772;2024-03-29T01:31:59;1.63;;;0.57;;
5774;SDS011;2913;51.120;6.772;2024-03-29T01:34:27;3.30;;;0.55;;
5774;SDS011;2913;51.120;6.772;2024-03-29T01:36:52;2.45;;;0.68;;
5774;SDS011;2913;51.120;6.772;2024-03-29T01:39:18;2.83;;;0.60;;
5774;SDS011;2913;51.120;6.772;2024-03-29T01:41:46;0.55;;;0.25;;
5774;SDS011;2913;51.120;6.772;2024-03-29T01:44:14;1.80;;;0.82;;
5774;SDS011;2913;51.120;6.772;2024-03-29T01:46:40;2.42;;;0.60;;
5774;SDS011;2913;51.120;6.772;2024-03-29T01:49:09;1.33;;;0.60;;
5774;SDS011;2913;51.120;6.772;2024-03-29T01:51:37;5.97;;;0.98;;
5774;SDS011;2913;51.120;6.772;2024-03-29T01:54:06;3.20;;;0.73;;
5774;SDS011;2913;51.120;6.772;2024-03-29T01:56:35;4.15;;;0.85;;
5774;SDS011;2913;51.120;6.772;2024-03-29T01:59:03;3.55;;;0.65;;
5774;SDS011;2913;51.120;6.772;2024-03-29T02:01:30;3.22;;;0.28;;
5774;SDS011;2913;51.120;6.772;2024-03-29T02:03:55;1.58;;;0.50;;
5774;SDS011;2913;51.120;6.772;2024-03-29T02:06:24;0.65;;;0.50;;
5774;SDS011;2913;51.120;6.772;2024-03-29T02:08:49;1.40;;;0.50;;
5774;SDS011;2913;51.120;6.772;2024-03-29T02:11:21;3.13;;;0.70;;
5774;SDS011;2913;51.120;6.772;2024-03-29T02:13:47;3.55;;;0.80;;
5774;SDS011;2913;51.120;6.772;2024-03-29T02:16:14;3.05;;;0.70;;
5774;SDS011;2913;51.120;6.772;2024-03-29T02:18:40;3.90;;;0.80;;
5774;SDS011;2913;51.120;6.772;2024-03-29T02:21:06;2.25;;;0.63;;
5774;SDS011;2913;51.120;6.772;2024-03-29T02:23:32;0.88;;;0.40;;
5774;SDS011;2913;51.120;6.772;2024-03-29T02:26:04;4.25;;;0.65;;
5774;SDS011;2913;51.120;6.772;2024-03-29T02:28:30;3.85;;;0.68;;
5774;SDS011;2913;51.120;6.772;2024-03-29T02:30:56;3.42;;;0.90;;
5774;SDS011;2913;51.120;6.772;2024-03-29T02:33:21;1.52;;;0.60;;
5774;SDS011;2913;51.120;6.772;2024-03-29T02:35:47;1.80;;;0.73;;
5774;SDS011;2913;51.120;6.772;2024-03-29T02:38:16;2.83;;;0.70;;
5774;SDS011;2913;51.120;6.772;2024-03-29T02:40:41;1.05;;;0.40;;
5774;SDS011;2913;51.120;6.772;2024-03-29T02:43:09;1.30;;;0.50;;
5774;SDS011;2913;51.120;6.772;2024-03-29T02:45:35;1.00;;;0.50;;
5774;SDS011;2913;51.120;6.772;2024-03-29T02:48:01;3.38;;;0.70;;
5774;SDS011;2913;51.120;6.772;2024-03-29T02:50:26;2.35;;;0.65;;
5774;SDS011;2913;51.120;6.772;2024-03-29T02:52:52;1.90;;;0.70;;
5774;SDS011;2913;51.120;6.772;2024-03-29T02:55:20;1.77;;;0.73;;
5774;SDS011;2913;51.120;6.772;2024-03-29T02:57:46;0.93;;;0.50;;
5774;SDS011;2913;51.120;6.772;2024-03-29T03:00:14;3.13;;;0.85;;
5774;SDS011;2913;51.120;6.772;2024-03-29T03:02:40;1.27;;;0.60;;
5774;SDS011;2913;51.120;6.772;2024-03-29T03:05:08;2.25;;;0.70;;
5774;SDS011;2913;51.120;6.772;2024-03-29T03:07:36;3.35;;;0.80;;
5774;SDS011;2913;51.120;6.772;2024-03-29T03:10:21;3.00;;;0.70;;
5774;SDS011;2913;51.120;6.772;2024-03-29T03:13:05;3.25;;;0.95;;
5774;SDS011;2913;51.120;6.772;2024-03-29T03:15:30;1.67;;;0.40;;
5774;SDS011;2913;51.120;6.772;2024-03-29T03:17:56;3.67;;;0.82;;
5774;SDS011;2913;51.120;6.772;2024-03-29T03:20:25;3.17;;;0.80;;
5774;SDS011;2913;51.120;6.772;2024-03-29T03:22:57;3.85;;;0.60;;
5774;SDS011;2913;51.120;6.772;2024-03-29T03:25:26;3.97;;;0.77;;
5774;SDS011;2913;51.120;6.772;2024-03-29T03:27:52;3.13;;;0.82;;
5774;SDS011;2913;51.120;6.772;2024-03-29T03:30:18;2.40;;;0.85;;
5774;SDS011;2913;51.120;6.772;2024-03-29T03:32:44;2.22;;;0.70;;
5774;SDS011;2913;51.120;6.772;2024-03-29T03:35:12;3.42;;;0.77;;
5774;SDS011;2913;51.120;6.772;2024-03-29T03:37:37;2.25;;;1.13;;
5774;SDS011;2913;51.120;6.772;2024-03-29T03:40:06;2.08;;;0.65;;
5774;SDS011;2913;51.120;6.772;2024-03-29T03:42:32;4.15;;;0.68;;
5774;SDS011;2913;51.120;6.772;2024-03-29T03:44:58;3.97;;;0.57;;
5774;SDS011;2913;51.120;6.772;2024-03-29T03:47:26;4.00;;;0.70;;
5774;SDS011;2913;51.120;6.772;2024-03-29T03:49:54;3.45;;;0.60;;
5774;SDS011;2913;51.120;6.772;2024-03-29T03:52:19;3.95;;;0.70;;
5774;SDS011;2913;51.120;6.772;2024-03-29T03:54:45;3.38;;;0.60;;
5774;SDS011;2913;51.120;6.772;2024-03-29T03:57:13;5.60;;;0.82;;
5774;SDS011;2913;51.120;6.772;2024-03-29T03:59:39;3.97;;;0.60;;
5774;SDS011;2913;51.120;6.772;2024-03-29T04:02:04;1.50;;;0.52;;
5774;SDS011;2913;51.120;6.772;2024-03-29T04:04:30;6.07;;;1.15;;
5774;SDS011;2913;51.120;6.772;2024-03-29T04:06:56;1.10;;;0.60;;
5774;SDS011;2913;51.120;6.772;2024-03-29T04:09:22;1.70;;;0.60;;
5774;SDS011;2913;51.120;6.772;2024-03-29T04:11:47;2.03;;;0.70;;
5774;SDS011;2913;51.120;6.772;2024-03-29T04:14:16;2.80;;;0.70;;
5774;SDS011;2913;51.120;6.772;2024-03-29T04:16:41;0.50;;;0.40;;
5774;SDS011;2913;51.120;6.772;2024-03-29T04:19:09;3.30;;;0.50;;
5774;SDS011;2913;51.120;6.772;2024-03-29T04:21:35;4.05;;;0.80;;
5774;SDS011;2913;51.120;6.772;2024-03-29T04:24:00;4.05;;;0.70;;
5774;SDS011;2913;51.120;6.772;2024-03-29T04:26:26;2.28;;;0.70;;
5774;SDS011;2913;51.120;6.772;2024-03-29T04:28:54;0.90;;;0.40;;
5774;SDS011;2913;51.120;6.772;2024-03-29T04:31:22;3.25;;;0.80;;
5774;SDS011;2913;51.120;6.772;2024-03-29T04:33:50;4.20;;;0.80;;
5774;SDS011;2913;51.120;6.772;2024-03-29T04:36:16;2.90;;;0.80;;
5774;SDS011;2913;51.120;6.772;2024-03-29T04:38:46;1.70;;;0.90;;
5774;SDS011;2913;51.120;6.772;2024-03-29T04:41:15;2.60;;;1.00;;
5774;SDS011;2913;51.120;6.772;2024-03-29T04:43:40;6.65;;;1.77;;
5774;SDS011;2913;51.120;6.772;2024-03-29T04:46:10;2.67;;;1.02;;
5774;SDS011;2913;51.120;6.772;2024-03-29T04:48:40;4.47;;;0.68;;
5774;SDS011;2913;51.120;6.772;2024-03-29T04:51:08;3.30;;;1.38;;
5774;SDS011;2913;51.120;6.772;2024-03-29T04:53:37;4.50;;;1.10;;
5774;SDS011;2913;51.120;6.772;2024-03-29T04:56:06;6.65;;;0.80;;
5774;SDS011;2913;51.120;6.772;2024-03-29T04:58:32;4.78;;;1.20;;
5774;SDS011;2913;51.120;6.772;2024-03-29T05:00:58;2.35;;;0.88;;
5774;SDS011;2913;51.120;6.772;2024-03-29T05:03:26;3.33;;;0.73;;
5774;SDS011;2913;51.120;6.772;2024-03-29T05:05:52;4.18;;;0.85;;
5774;SDS011;2913;51.120;6.772;2024-03-29T05:08:18;3.58;;;0.95;;
5774;SDS011;2913;51.120;6.772;2024-03-29T05:10:45;4.63;;;0.60;;
5774;SDS011;2913;51.120;6.772;2024-03-29T05:13:11;3.55;;;0.88;;
5774;SDS011;2913;51.120;6.772;2024-03-29T05:15:39;5.47;;;1.05;;
5774;SDS011;2913;51.120;6.772;2024-03-29T05:18:07;4.28;;;1.08;;
5774;SDS011;2913;51.120;6.772;2024-03-29T05:20:35;1.52;;;0.80;;
5774;SDS011;2913;51.120;6.772;2024-03-29T05:23:03;6.25;;;1.88;;
5774;SDS011;2913;51.120;6.772;2024-03-29T05:25:29;3.08;;;0.90;;
5774;SDS011;2913;51.120;6.772;2024-03-29T05:27:55;3.20;;;1.30;;
5774;SDS011;2913;51.120;6.772;2024-03-29T05:30:23;4.32;;;1.10;;
5774;SDS011;2913;51.120;6.772;2024-03-29T05:32:49;5.47;;;0.90;;
5774;SDS011;2913;51.120;6.772;2024-03-29T05:35:15;4.60;;;1.13;;
5774;SDS011;2913;51.120;6.772;2024-03-29T05:37:41;4.50;;;1.10;;
5774;SDS011;2913;51.120;6.772;2024-03-29T05:40:07;3.58;;;0.77;;
5774;SDS011;2913;51.120;6.772;2024-03-29T05:42:34;2.35;;;0.77;;
5774;SDS011;2913;51.120;6.772;2024-03-29T05:45:03;3.28;;;0.55;;
5774;SDS011;2913;51.120;6.772;2024-03-29T05:47:30;7.20;;;1.52;;
5774;SDS011;2913;51.120;6.772;2024-03-29T05:49:58;4.30;;;1.33;;
5774;SDS011;2913;51.120;6.772;2024-03-29T05:52:26;6.90;;;1.70;;
5774;SDS011;2913;51.120;6.772;2024-03-29T05:54:51;8.32;;;2.08;;
5774;SDS011;2913;51.120;6.772;2024-03-29T05:57:19;6.22;;;1.63;;
5774;SDS011;2913;51.120;6.772;2024-03-29T05:59:47;6.50;;;1.65;;
5774;SDS011;2913;51.120;6.772;2024-03-29T06:02:12;3.45;;;1.08;;
5774;SDS011;2913;51.120;6.772;2024-03-29T06:04:38;8.98;;;1.60;;
5774;SDS011;2913;51.120;6.772;2024-03-29T06:07:04;7.40;;;1.27;;
5774;SDS011;2913;51.120;6.772;2024-03-29T06:09:33;5.00;;;1.15;;
5774;SDS011;2913;51.120;6.772;2024-03-29T06:12:00;7.43;;;1.55;;
5774;SDS011;2913;51.120;6.772;2024-03-29T06:14:26;4.82;;;1.58;;
5774;SDS011;2913;51.120;6.772;2024-03-29T06:17:11;3.50;;;1.05;;
5774;SDS011;2913;51.120;6.772;2024-03-29T06:19:51;6.10;;;1.20;;
5774;SDS011;2913;51.120;6.772;2024-03-29T06:22:21;5.20;;;1.38;;
5774;SDS011;2913;51.120;6.772;2024-03-29T06:24:52;9.45;;;1.88;;
5774;SDS011;2913;51.120;6.772;2024-03-29T06:27:24;5.65;;;1.63;;
5774;SDS011;2913;51.120;6.772;2024-03-29T06:29:52;5.60;;;0.80;;
5774;SDS011;2913;51.120;6.772;2024-03-29T06:32:20;4.13;;;1.02;;
5774;SDS011;2913;51.120;6.772;2024-03-29T06:34:46;3.42;;;0.80;;
5774;SDS011;2913;51.120;6.772;2024-03-29T06:37:12;1.23;;;0.93;;
5774;SDS011;2913;51.120;6.772;2024-03-29T06:39:37;3.72;;;0.90;;
5774;SDS011;2913;51.120;6.772;2024-03-29T06:42:03;2.70;;;0.80;;
5774;SDS011;2913;51.120;6.772;2024-03-29T06:44:32;4.35;;;1.02;;
5774;SDS011;2913;51.120;6.772;2024-03-29T06:47:02;2.55;;;0.98;;
5774;SDS011;2913;51.120;6.772;2024-03-29T06:49:29;3.25;;;1.13;;
5774;SDS011;2913;51.120;6.772;2024-03-29T06:51:56;1.90;;;1.02;;
5774;SDS011;2913;51.120;6.772;2024-03-29T06:54:24;4.78;;;0.90;;
5774;SDS011;2913;51.120;6.772;2024-03-29T06:56:52;1.95;;;0.80;;
5774;SDS011;2913;51.120;6.772;2024-03-29T06:59:24;2.13;;;1.10;;
5774;SDS011;2913;51.120;6.772;2024-03-29T07:01:53;4.30;;;1.20;;
5774;SDS011;2913;51.120;6.772;2024-03-29T07:04:19;3.03;;;1.10;;
5774;SDS011;2913;51.120;6.772;2024-03-29T07:06:45;3.08;;;1.00;;
5774;SDS011;2913;51.120;6.772;2024-03-29T07:09:13;3.47;;;1.08;;
5774;SDS011;2913;51.120;6.772;2024-03-29T07:11:39;2.03;;;1.20;;
5774;SDS011;2913;51.120;6.772;2024-03-29T07:14:05;4.15;;;1.05;;
5774;SDS011;2913;51.120;6.772;2024-03-29T07:16:31;2.20;;;0.82;;
5774;SDS011;2913;51.120;6.772;2024-03-29T07:18:57;5.00;;;0.95;;
5774;SDS011;2913;51.120;6.772;2024-03-29T07:21:25;3.75;;;1.45;;
5774;SDS011;2913;51.120;6.772;2024-03-29T07:23:51;3.90;;;1.08;;
5774;SDS011;2913;51.120;6.772;2024-03-29T07:26:16;6.75;;;1.33;;
5774;SDS011;2913;51.120;6.772;2024-03-29T07:28:42;3.50;;;1.10;;
5774;SDS011;2913;51.120;6.772;2024-03-29T07:31:12;4.07;;;1.20;;
5774;SDS011;2913;51.120;6.772;2024-03-29T07:33:43;2.88;;;1.10;;
5774;SDS011;2913;51.120;6.772;2024-03-29T07:36:09;2.17;;;1.10;;
5774;SDS011;2913;51.120;6.772;2024-03-29T07:38:36;3.83;;;1.20;;
5774;SDS011;2913;51.120;6.772;2024-03-29T07:41:04;2.28;;;1.10;;
5774;SDS011;2913;51.120;6.772;2024-03-29T07:43:50;2.22;;;1.02;;
5774;SDS011;2913;51.120;6.772;2024-03-29T07:46:18;1.90;;;1.00;;
5774;SDS011;2913;51.120;6.772;2024-03-29T07:48:46;2.80;;;0.90;;
5774;SDS011;2913;51.120;6.772;2024-03-29T07:51:13;3.53;;;0.80;;
5774;SDS011;2913;51.120;6.772;2024-03-29T07:53:38;1.77;;;0.70;;
5774;SDS011;2913;51.120;6.772;2024-03-29T07:56:05;3.35;;;1.02;;
5774;SDS011;2913;51.120;6.772;2024-03-29T07:58:33;2.17;;;0.75;;
5774;SDS011;2913;51.120;6.772;2024-03-29T08:00:58;2.63;;;0.77;;
5774;SDS011;2913;51.120;6.772;2024-03-29T08:03:26;1.25;;;0.70;;
5774;SDS011;2913;51.120;6.772;2024-03-29T08:05:58;1.73;;;0.80;;
5774;SDS011;2913;51.120;6.772;2024-03-29T08:08:29;2.35;;;1.00;;
5774;SDS011;2913;51.120;6.772;2024-03-29T08:10:55;1.23;;;0.80;;
5774;SDS011;2913;51.120;6.772;2024-03-29T08:13:21;1.73;;;0.98;;
5774;SDS011;2913;51.120;6.772;2024-03-29T08:15:47;2.65;;;1.10;;
5774;SDS011;2913;51.120;6.772;2024-03-29T08:18:22;4.75;;;1.10;;
5774;SDS011;2913;51.120;6.772;2024-03-29T08:20:48;2.63;;;0.85;;
5774;SDS011;2913;51.120;6.772;2024-03-29T08:23:16;1.48;;;0.77;;
5774;SDS011;2913;51.120;6.772;2024-03-29T08:25:41;1.23;;;0.80;;
5774;SDS011;2913;51.120;6.772;2024-03-29T08:28:07;2.13;;;0.90;;
5774;SDS011;2913;51.120;6.772;2024-03-29T08:30:35;1.55;;;0.70;;
5774;SDS011;2913;51.120;6.772;2024-03-29T08:33:01;1.80;;;0.73;;
5774;SDS011;2913;51.120;6.772;2024-03-29T08:35:28;1.88;;;0.70;;
5774;SDS011;2913;51.120;6.772;2024-03-29T08:38:00;0.70;;;0.52;;
5774;SDS011;2913;51.120;6.772;2024-03-29T08:40:27;0.82;;;0.50;;
5774;SDS011;2913;51.120;6.772;2024-03-29T08:42:54;1.27;;;0.70;;
5774;SDS011;2913;51.120;6.772;2024-03-29T08:45:23;1.15;;;0.82;;
5774;SDS011;2913;51.120;6.772;2024-03-29T08:47:52;2.50;;;0.60;;
5774;SDS011;2913;51.120;6.772;2024-03-29T08:50:18;1.30;;;0.73;;
5774;SDS011;2913;51.120;6.772;2024-03-29T08:52:46;0.98;;;0.65;;
5774;SDS011;2913;51.120;6.772;2024-03-29T08:55:12;1.30;;;0.80;;
5774;SDS011;2913;51.120;6.772;2024-03-29T08:57:37;1.50;;;0.70;;
5774;SDS011;2913;51.120;6.772;2024-03-29T09:00:03;2.47;;;0.77;;
5774;SDS011;2913;51.120;6.772;2024-03-29T09:02:29;1.13;;;0.60;;
5774;SDS011;2913;51.120;6.772;2024-03-29T09:04:55;1.50;;;0.80;;
5774;SDS011;2913;51.120;6.772;2024-03-29T09:07:21;2.25;;;0.90;;
5774;SDS011;2913;51.120;6.772;2024-03-29T09:09:48;1.95;;;0.60;;
5774;SDS011;2913;51.120;6.772;2024-03-29T09:12:14;1.23;;;0.60;;
5774;SDS011;2913;51.120;6.772;2024-03-29T09:14:45;1.63;;;0.68;;
5774;SDS011;2913;51.120;6.772;2024-03-29T09:17:11;3.22;;;0.70;;
5774;SDS011;2913;51.120;6.772;2024-03-29T09:19:39;2.22;;;0.60;;
5774;SDS011;2913;51.120;6.772;2024-03-29T09:22:05;1.05;;;0.50;;
5774;SDS011;2913;51.120;6.772;2024-03-29T09:24:30;0.82;;;0.60;;
5774;SDS011;2913;51.120;6.772;2024-03-29T09:26:57;4.45;;;0.75;;
5774;SDS011;2913;51.120;6.772;2024-03-29T09:29:22;0.98;;;0.75;;
5774;SDS011;2913;51.120;6.772;2024-03-29T09:31:48;1.15;;;0.52;;
5774;SDS011;2913;51.120;6.772;2024-03-29T09:34:13;1.95;;;0.60;;
5774;SDS011;2913;51.120;6.772;2024-03-29T09:36:41;1.85;;;0.50;;
5774;SDS011;2913;51.120;6.772;2024-03-29T09:39:07;1.13;;;0.60;;
5774;SDS011;2913;51.120;6.772;2024-03-29T09:41:33;2.45;;;0.60;;
5774;SDS011;2913;51.120;6.772;2024-03-29T09:44:03;1.98;;;0.70;;
5774;SDS011;2913;51.120;6.772;2024-03-29T09:46:32;1.88;;;0.60;;
5774;SDS011;2913;51.120;6.772;2024-03-29T09:48:59;0.98;;;0.55;;
5774;SDS011;2913;51.120;6.772;2024-03-29T09:51:27;0.50;;;0.40;;
5774;SDS011;2913;51.120;6.772;2024-03-29T09:53:54;1.83;;;0.60;;
5774;SDS011;2913;51.120;6.772;2024-03-29T09:56:22;1.67;;;0.50;;
5774;SDS011;2913;51.120;6.772;2024-03-29T09:58:51;0.70;;;0.40;;
5774;SDS011;2913;51.120;6.772;2024-03-29T10:01:16;3.35;;;0.60;;
5774;SDS011;2913;51.120;6.772;2024-03-29T10:03:44;0.50;;;0.40;;
5774;SDS011;2913;51.120;6.772;2024-03-29T10:06:13;1.05;;;0.47;;
5774;SDS011;2913;51.120;6.772;2024-03-29T10:08:40;1.30;;;0.40;;
5774;SDS011;2913;51.120;6.772;2024-03-29T10:11:06;1.15;;;0.50;;
5774;SDS011;2913;51.120;6.772;2024-03-29T10:13:32;2.05;;;0.50;;
5774;SDS011;2913;51.120;6.772;2024-03-29T10:15:59;1.10;;;0.50;;
5774;SDS011;2913;51.120;6.772;2024-03-29T10:18:30;0.73;;;0.43;;
5774;SDS011;2913;51.120;6.772;2024-03-29T10:21:04;1.38;;;0.50;;
5774;SDS011;2913;51.120;6.772;2024-03-29T10:23:34;4.13;;;0.47;;
5774;SDS011;2913;51.120;6.772;2024-03-29T10:26:01;1.58;;;0.50;;
5774;SDS011;2913;51.120;6.772;2024-03-29T10:28:33;2.33;;;0.52;;
5774;SDS011;2913;51.120;6.772;2024-03-29T10:31:09;1.42;;;0.80;;
5774;SDS011;2913;51.120;6.772;2024-03-29T10:33:41;4.85;;;0.82;;
5774;SDS011;2913;51.120;6.772;2024-03-29T10:36:09;1.73;;;0.65;;
5774;SDS011;2913;51.120;6.772;2024-03-29T10:38:37;1.65;;;0.50;;
5774;SDS011;2913;51.120;6.772;2024-03-29T10:41:04;1.48;;;0.65;;
5774;SDS011;2913;51.120;6.772;2024-03-29T10:43:31;1.75;;;0.40;;
5774;SDS011;2913;51.120;6.772;2024-03-29T10:46:00;0.52;;;0.30;;
5774;SDS011;2913;51.120;6.772;2024-03-29T10:48:26;4.47;;;0.70;;
5774;SDS011;2913;51.120;6.772;2024-03-29T10:50:53;3.13;;;1.17;;
5774;SDS011;2913;51.120;6.772;2024-03-29T10:53:20;4.60;;;0.68;;
5774;SDS011;2913;51.120;6.772;2024-03-29T10:55:50;2.78;;;0.93;;
5774;SDS011;2913;51.120;6.772;2024-03-29T10:58:18;1.23;;;0.50;;
5774;SDS011;2913;51.120;6.772;2024-03-29T11:00:49;4.15;;;0.73;;
5774;SDS011;2913;51.120;6.772;2024-03-29T11:03:40;1.60;;;0.53;;
5774;SDS011;2913;51.120;6.772;2024-03-29T11:06:12;0.85;;;0.55;;
5774;SDS011;2913;51.120;6.772;2024-03-29T11:08:44;2.13;;;0.50;;
5774;SDS011;2913;51.120;6.772;2024-03-29T11:11:12;1.92;;;0.50;;
5774;SDS011;2913;51.120;6.772;2024-03-29T11:13:47;2.67;;;0.47;;
5774;SDS011;2913;51.120;6.772;2024-03-29T11:16:20;0.40;;;0.30;;
5774;SDS011;2913;51.120;6.772;2024-03-29T11:18:48;0.90;;;0.40;;
5774;SDS011;2913;51.120;6.772;2024-03-29T11:21:17;3.50;;;0.50;;
5774;SDS011;2913;51.120;6.772;2024-03-29T11:23:49;0.52;;;0.25;;
5774;SDS011;2913;51.120;6.772;2024-03-29T11:26:18;1.83;;;0.50;;
5774;SDS011;2913;51.120;6.772;2024-03-29T11:28:48;0.65;;;0.45;;
5774;SDS011;2913;51.120;6.772;2024-03-29T11:31:17;2.70;;;0.50;;
5774;SDS011;2913;51.120;6.772;2024-03-29T11:33:50;2.28;;;0.50;;
5774;SDS011;2913;51.120;6.772;2024-03-29T11:38:48;2.55;;;0.30;;
5774;SDS011;2913;51.120;6.772;2024-03-29T11:41:22;1.63;;;0.35;;
5774;SDS011;2913;51.120;6.772;2024-03-29T11:43:55;1.20;;;0.43;;
5774;SDS011;2913;51.120;6.772;2024-03-29T11:46:24;0.40;;;0.30;;
5774;SDS011;2913;51.120;6.772;2024-03-29T11:48:54;4.05;;;0.40;;
5774;SDS011;2913;51.120;6.772;2024-03-29T11:51:21;1.30;;;0.50;;
5774;SDS011;2913;51.120;6.772;2024-03-29T11:53:49;1.25;;;0.30;;
5774;SDS011;2913;51.120;6.772;2024-03-29T11:56:18;2.17;;;1.02;;
5774;SDS011;2913;51.120;6.772;2024-03-29T11:58:45;1.30;;;0.40;;
5774;SDS011;2913;51.120;6.772;2024-03-29T12:01:13;1.52;;;0.50;;
5774;SDS011;2913;51.120;6.772;2024-03-29T12:03:40;1.63;;;0.55;;
5774;SDS011;2913;51.120;6.772;2024-03-29T12:06:07;1.25;;;0.40;;
5774;SDS011;2913;51.120;6.772;2024-03-29T12:08:36;0.95;;;0.38;;
5774;SDS011;2913;51.120;6.772;2024-03-29T12:11:04;1.45;;;0.50;;
5774;SDS011;2913;51.120;6.772;2024-03-29T12:13:32;3.25;;;0.50;;
5774;SDS011;2913;51.120;6.772;2024-03-29T12:15:59;1.95;;;0.40;;
5774;SDS011;2913;51.120;6.772;2024-03-29T12:18:26;0.55;;;0.35;;
5774;SDS011;2913;51.120;6.772;2024-03-29T12:21:01;1.00;;;0.50;;
5774;SDS011;2913;51.120;6.772;2024-03-29T12:23:27;1.77;;;0.50;;
5774;SDS011;2913;51.120;6.772;2024-03-29T12:25:56;2.15;;;0.63;;
5774;SDS011;2913;51.120;6.772;2024-03-29T12:28:25;1.15;;;0.40;;
5774;SDS011;2913;51.120;6.772;2024-03-29T12:30:52;4.93;;;0.57;;
5774;SDS011;2913;51.120;6.772;2024-03-29T12:33:20;5.05;;;0.57;;
5774;SDS011;2913;51.120;6.772;2024-03-29T12:35:47;1.98;;;0.60;;
5774;SDS011;2913;51.120;6.772;2024-03-29T12:38:19;1.63;;;0.60;;
5774;SDS011;2913;51.120;6.772;2024-03-29T12:40:48;2.20;;;0.80;;
5774;SDS011;2913;51.120;6.772;2024-03-29T12:43:19;1.77;;;1.10;;
5774;SDS011;2913;51.120;6.772;2024-03-29T12:45:45;2.42;;;0.90;;
5774;SDS011;2913;51.120;6.772;2024-03-29T12:48:12;1.38;;;0.65;;
5774;SDS011;2913;51.120;6.772;2024-03-29T12:50:42;1.77;;;0.60;;
5774;SDS011;2913;51.120;6.772;2024-03-29T12:53:10;0.68;;;0.45;;
5774;SDS011;2913;51.120;6.772;2024-03-29T12:55:41;1.85;;;0.50;;
5774;SDS011;2913;51.120;6.772;2024-03-29T12:58:10;1.88;;;0.43;;
5774;SDS011;2913;51.120;6.772;2024-03-29T13:00:41;1.48;;;0.57;;
5774;SDS011;2913;51.120;6.772;2024-03-29T13:03:07;2.28;;;0.57;;
5774;SDS011;2913;51.120;6.772;2024-03-29T13:05:36;1.08;;;0.50;;
5774;SDS011;2913;51.120;6.772;2024-03-29T13:08:10;4.03;;;0.55;;
5774;SDS011;2913;51.120;6.772;2024-03-29T13:10:40;1.65;;;0.30;;
5774;SDS011;2913;51.120;6.772;2024-03-29T13:13:07;1.55;;;0.55;;
5774;SDS011;2913;51.120;6.772;2024-03-29T13:15:36;1.17;;;0.63;;
5774;SDS011;2913;51.120;6.772;2024-03-29T13:18:03;1.08;;;0.40;;
5774;SDS011;2913;51.120;6.772;2024-03-29T13:20:32;0.88;;;0.57;;
5774;SDS011;2913;51.120;6.772;2024-03-29T13:23:02;0.70;;;0.47;;
5774;SDS011;2913;51.120;6.772;2024-03-29T13:25:28;0.95;;;0.47;;
5774;SDS011;2913;51.120;6.772;2024-03-29T13:27:54;0.73;;;0.50;;
5774;SDS011;2913;51.120;6.772;2024-03-29T13:30:25;1.63;;;0.50;;
5774;SDS011;2913;51.120;6.772;2024-03-29T13:32:51;0.57;;;0.40;;
5774;SDS011;2913;51.120;6.772;2024-03-29T13:35:20;0.75;;;0.30;;
5774;SDS011;2913;51.120;6.772;2024-03-29T13:37:52;0.70;;;0.40;;
5774;SDS011;2913;51.120;6.772;2024-03-29T13:40:21;2.10;;;0.30;;
5774;SDS011;2913;51.120;6.772;2024-03-29T13:42:48;0.30;;;0.30;;
5774;SDS011;2913;51.120;6.772;2024-03-29T13:45:16;1.80;;;0.20;;
5774;SDS011;2913;51.120;6.772;2024-03-29T13:47:45;3.30;;;0.30;;
5774;SDS011;2913;51.120;6.772;2024-03-29T13:50:14;2.35;;;0.30;;
5774;SDS011;2913;51.120;6.772;2024-03-29T13:52:44;0.77;;;0.20;;
5774;SDS011;2913;51.120;6.772;2024-03-29T13:55:16;1.85;;;0.40;;
5774;SDS011;2913;51.120;6.772;2024-03-29T13:57:42;1.00;;;0.20;;
5774;SDS011;2913;51.120;6.772;2024-03-29T14:00:08;0.25;;;0.20;;
5774;SDS011;2913;51.120;6.772;2024-03-29T14:02:38;2.88;;;0.40;;
5774;SDS011;2913;51.120;6.772;2024-03-29T14:05:04;1.08;;;0.20;;
5774;SDS011;2913;51.120;6.772;2024-03-29T14:07:29;0.75;;;0.20;;
5774;SDS011;2913;51.120;6.772;2024-03-29T14:09:55;0.65;;;0.40;;
5774;SDS011;2913;51.120;6.772;2024-03-29T14:12:23;0.73;;;0.20;;
5774;SDS011;2913;51.120;6.772;2024-03-29T14:14:50;1.00;;;0.20;;
5774;SDS011;2913;51.120;6.772;2024-03-29T14:17:19;0.30;;;0.30;;
5774;SDS011;2913;51.120;6.772;2024-03-29T14:19:45;0.30;;;0.20;;
5774;SDS011;2913;51.120;6.772;2024-03-29T14:22:10;0.40;;;0.20;;
5774;SDS011;2913;51.120;6.772;2024-03-29T14:24:44;1.23;;;0.40;;
5774;SDS011;2913;51.120;6.772;2024-03-29T14:27:10;1.20;;;0.25;;
5774;SDS011;2913;51.120;6.772;2024-03-29T14:29:37;0.38;;;0.30;;
5774;SDS011;2913;51.120;6.772;2024-03-29T14:32:03;0.73;;;0.28;;
5774;SDS011;2913;51.120;6.772;2024-03-29T14:34:29;0.40;;;0.20;;
5774;SDS011;2913;51.120;6.772;2024-03-29T14:37:03;1.17;;;0.32;;
5774;SDS011;2913;51.120;6.772;2024-03-29T14:39:29;0.60;;;0.40;;
5774;SDS011;2913;51.120;6.772;2024-03-29T14:41:59;0.77;;;0.20;;
5774;SDS011;2913;51.120;6.772;2024-03-29T14:46:55;0.95;;;0.50;;
5774;SDS011;2913;51.120;6.772;2024-03-29T14:49:26;1.08;;;0.43;;
5774;SDS011;2913;51.120;6.772;2024-03-29T14:51:54;1.40;;;0.70;;
5774;SDS011;2913;51.120;6.772;2024-03-29T14:54:20;0.40;;;0.30;;
5774;SDS011;2913;51.120;6.772;2024-03-29T14:56:45;0.13;;;0.13;;
5774;SDS011;2913;51.120;6.772;2024-03-29T14:59:12;0.60;;;0.30;;
5774;SDS011;2913;51.120;6.772;2024-03-29T15:01:40;0.95;;;0.35;;
5774;SDS011;2913;51.120;6.772;2024-03-29T15:04:07;0.57;;;0.30;;
5774;SDS011;2913;51.120;6.772;2024-03-29T15:06:33;2.30;;;0.35;;
5774;SDS011;2913;51.120;6.772;2024-03-29T15:08:59;1.45;;;0.30;;
5774;SDS011;2913;51.120;6.772;2024-03-29T15:11:29;0.20;;;0.20;;
5774;SDS011;2913;51.120;6.772;2024-03-29T15:13:55;0.98;;;0.30;;
5774;SDS011;2913;51.120;6.772;2024-03-29T15:16:23;0.65;;;0.30;;
5774;SDS011;2913;51.120;6.772;2024-03-29T15:18:52;0.50;;;0.40;;
5774;SDS011;2913;51.120;6.772;2024-03-29T15:21:18;0.30;;;0.30;;
5774;SDS011;2913;51.120;6.772;2024-03-29T15:23:43;1.25;;;0.30;;